Grand Isle, Vermont
Current Conditions -  °F | °C
As of 6:53 AM on Friday 31 Oct 2014 (Local Time) from KPBG Reporting Station
Clear Clear  
Wind Chill: 30°   Ceiling: Unl
Heat Index: 30°   Visibility: 10mi
Dew Point: 29°   Wind: 0mph
Humidity: 96%   Direction: NA
Pressure: 30.04"   Gusts: NA
Location:  44.72°N, 73.29°W
Report Text: KPBG 311053Z AUTO 00000KT 10SM CLR M01/M02 A3004 RMK AO2 SLP175 T10111017
Loading
Personal Weather Stations






























Interactive Weather Map
Tropical Storm Tracking
New forecast layout! Learn more

10-Day Weather Forecast

Advertisements
Track Severe Weather on mobile